createdAt,value
2018-05-14T00:00:36.013Z,47.93
2018-05-14T00:03:03.486Z,47.57
2018-05-14T00:05:30.948Z,47.87
2018-05-14T00:07:59.178Z,40.73
2018-05-14T00:10:26.648Z,45.70
2018-05-14T00:12:54.113Z,42.63
2018-05-14T00:15:21.669Z,43.33
2018-05-14T00:17:49.144Z,41.83
2018-05-14T00:20:17.404Z,44.03
2018-05-14T00:22:44.872Z,43.87
2018-05-14T00:25:12.345Z,47.27
2018-05-14T00:27:40.600Z,42.70
2018-05-14T00:30:08.052Z,45.90
2018-05-14T00:32:35.520Z,45.30
2018-05-14T00:35:03.407Z,50.70
2018-05-14T00:37:31.632Z,49.83
2018-05-14T00:39:59.097Z,47.57
2018-05-14T00:42:26.581Z,46.83
2018-05-14T00:44:54.828Z,49.90
2018-05-14T00:47:22.338Z,51.80
2018-05-14T00:49:50.560Z,53.20
2018-05-14T00:52:18.025Z,50.50
2018-05-14T00:54:57.377Z,50.97
2018-05-14T00:57:24.832Z,51.10
2018-05-14T00:59:52.301Z,49.00
2018-05-14T01:02:20.543Z,49.10
2018-05-14T01:04:48.008Z,48.43
2018-05-14T01:07:15.463Z,45.80
2018-05-14T01:09:42.945Z,44.53
2018-05-14T01:12:11.176Z,44.33
2018-05-14T01:14:38.653Z,47.20
2018-05-14T01:17:06.137Z,45.23
2018-05-14T01:19:34.356Z,46.37
2018-05-14T01:22:01.823Z,49.70
2018-05-14T01:24:30.052Z,46.20
2018-05-14T01:26:58.293Z,45.97
2018-05-14T01:29:25.760Z,47.37
2018-05-14T01:31:53.215Z,46.47
2018-05-14T01:34:20.725Z,48.70
2018-05-14T01:36:48.185Z,46.73
2018-05-14T01:39:15.672Z,46.83
2018-05-14T01:41:44.649Z,47.60
2018-05-14T01:44:12.116Z,47.40
2018-05-14T01:46:39.576Z,47.13
2018-05-14T01:49:07.051Z,45.57
2018-05-14T01:51:34.504Z,47.27
2018-05-14T01:54:01.968Z,46.77
2018-05-14T01:56:30.196Z,42.43
2018-05-14T01:58:57.651Z,43.73
2018-05-14T02:01:25.144Z,42.77
2018-05-14T02:03:52.600Z,42.83
2018-05-14T02:06:20.069Z,45.97
2018-05-14T02:08:47.516Z,41.00
2018-05-14T02:11:14.980Z,44.23
2018-05-14T02:13:42.466Z,40.63
2018-05-14T02:16:10.679Z,43.23
2018-05-14T02:18:38.164Z,40.17
2018-05-14T02:21:05.606Z,45.00
2018-05-14T02:23:33.071Z,45.10
2018-05-14T02:26:00.540Z,43.57
2018-05-14T02:28:27.994Z,38.97
2018-05-14T02:30:55.467Z,42.23
2018-05-14T02:33:23.697Z,44.63
2018-05-14T02:35:51.158Z,39.37
2018-05-14T02:38:18.629Z,44.57
2018-05-14T02:40:46.102Z,41.93
2018-05-14T02:43:14.350Z,43.90
2018-05-14T02:45:42.748Z,43.83
2018-05-14T02:48:10.208Z,45.67
2018-05-14T02:50:37.672Z,43.63
2018-05-14T02:53:05.892Z,44.40
2018-05-14T02:55:33.364Z,42.20
2018-05-14T02:58:00.832Z,44.40
2018-05-14T03:00:28.300Z,46.67
2018-05-14T03:02:55.764Z,47.80
2018-05-14T03:05:23.240Z,45.83
2018-05-14T03:07:51.484Z,44.77
2018-05-14T03:10:18.973Z,46.83
2018-05-14T03:12:46.407Z,48.53
2018-05-14T03:15:13.885Z,48.73
2018-05-14T03:17:42.154Z,46.40
2018-05-14T03:20:09.618Z,46.40
2018-05-14T03:22:37.868Z,49.20
2018-05-14T03:25:05.336Z,49.87
2018-05-14T03:27:32.796Z,51.37
2018-05-14T03:30:01.037Z,51.27
2018-05-14T03:32:28.508Z,50.37
2018-05-14T03:34:55.992Z,51.73
2018-05-14T03:37:24.227Z,50.83
2018-05-14T03:39:51.687Z,52.37
2018-05-14T03:42:19.166Z,50.67
2018-05-14T03:44:46.634Z,47.73
2018-05-14T03:47:14.870Z,52.37
2018-05-14T03:49:42.340Z,58.77
2018-05-14T03:52:09.805Z,54.87
2018-05-14T03:54:37.271Z,59.50
2018-05-14T03:57:06.336Z,59.97
2018-05-14T03:59:45.864Z,56.73
2018-05-14T04:02:25.254Z,52.97
2018-05-14T04:05:05.611Z,54.33
2018-05-14T04:07:33.842Z,56.93
2018-05-14T04:10:01.344Z,59.50
2018-05-14T04:12:28.773Z,53.43
2018-05-14T04:14:56.265Z,54.60
2018-05-14T04:17:24.518Z,56.00
2018-05-14T04:19:51.974Z,59.30
2018-05-14T04:22:19.432Z,60.33
2018-05-14T04:24:47.675Z,56.83
2018-05-14T04:27:15.148Z,61.83
2018-05-14T04:29:42.675Z,57.97
2018-05-14T04:32:10.169Z,60.43
2018-05-14T04:34:37.730Z,48.13
2018-05-14T04:37:05.285Z,54.47
2018-05-14T04:39:32.749Z,51.60
2018-05-14T04:42:00.211Z,46.97
2018-05-14T04:44:27.685Z,49.53
2018-05-14T04:46:55.937Z,50.50
2018-05-14T04:49:23.416Z,47.27
2018-05-14T04:51:51.649Z,49.23
2018-05-14T04:54:19.108Z,44.50
2018-05-14T04:56:46.601Z,44.50
2018-05-14T04:59:14.913Z,43.33
2018-05-14T05:01:42.301Z,51.93
2018-05-14T05:04:09.792Z,44.33
2018-05-14T05:06:38.013Z,43.30
2018-05-14T05:09:05.470Z,42.07
2018-05-14T05:11:33.017Z,43.63
2018-05-14T05:14:00.417Z,43.40
2018-05-14T05:16:27.903Z,45.20
2018-05-14T05:18:56.141Z,44.27
2018-05-14T05:21:23.619Z,42.43
2018-05-14T05:23:51.846Z,41.50
2018-05-14T05:26:19.329Z,39.43
2018-05-14T05:28:46.806Z,42.07
2018-05-14T05:31:14.268Z,42.60
2018-05-14T05:33:42.527Z,42.73
2018-05-14T05:36:09.985Z,41.70
2018-05-14T05:38:37.442Z,40.90
2018-05-14T05:41:04.904Z,43.10
2018-05-14T05:43:32.377Z,41.83
2018-05-14T05:46:00.595Z,44.20
2018-05-14T05:48:28.073Z,41.77
2018-05-14T05:50:55.549Z,45.20
2018-05-14T05:53:23.025Z,49.67
2018-05-14T05:55:51.441Z,48.07
2018-05-14T05:58:18.948Z,43.07
2018-05-14T06:00:46.422Z,42.60
2018-05-14T06:03:14.645Z,47.70
2018-05-14T06:05:42.103Z,46.97
2018-05-14T06:08:09.611Z,49.43
2018-05-14T06:10:37.115Z,44.60
2018-05-14T06:13:04.599Z,47.10
2018-05-14T06:15:32.165Z,41.73
2018-05-14T06:18:00.441Z,47.67
2018-05-14T06:20:28.689Z,45.47
2018-05-14T06:22:56.149Z,43.87
2018-05-14T06:25:23.620Z,41.37
2018-05-14T06:27:51.289Z,41.30
2018-05-14T06:30:18.705Z,41.43
2018-05-14T06:32:46.268Z,42.37
2018-05-14T06:35:14.888Z,44.33
2018-05-14T06:37:42.401Z,45.67
2018-05-14T06:40:09.877Z,44.90
2018-05-14T06:42:37.781Z,41.30
2018-05-14T06:45:05.244Z,47.90
2018-05-14T06:47:34.504Z,45.10
2018-05-14T06:50:02.706Z,45.13
2018-05-14T06:52:30.238Z,44.70
2018-05-14T06:54:58.420Z,46.00
2018-05-14T06:57:25.885Z,50.00
2018-05-14T06:59:54.160Z,46.23
2018-05-14T07:02:22.092Z,43.90
2018-05-14T07:04:51.304Z,48.60
2018-05-14T07:07:18.938Z,47.33
2018-05-14T07:09:46.633Z,47.10
2018-05-14T07:12:14.697Z,48.10
2018-05-14T07:14:43.050Z,48.07
2018-05-14T07:17:10.521Z,45.40
2018-05-14T07:19:37.980Z,45.83
2018-05-14T07:22:05.436Z,42.47
2018-05-14T07:24:33.084Z,43.90
2018-05-14T07:27:01.317Z,43.80
2018-05-14T07:29:29.543Z,45.50
2018-05-14T07:31:57.011Z,46.63
2018-05-14T07:34:24.461Z,48.87
2018-05-14T07:36:51.924Z,48.97
2018-05-14T07:39:19.388Z,42.13
2018-05-14T07:41:47.883Z,43.20
2018-05-14T07:44:15.340Z,36.97
2018-05-14T07:46:42.907Z,34.47
2018-05-14T07:49:10.393Z,33.87
2018-05-14T07:51:37.852Z,32.80
2018-05-14T07:54:05.348Z,34.17
2018-05-14T07:56:32.807Z,32.50
2018-05-14T07:59:00.458Z,32.00
2018-05-14T08:01:27.916Z,31.60
2018-05-14T08:03:55.380Z,30.70
2018-05-14T08:06:22.848Z,32.27
2018-05-14T08:08:51.028Z,32.10
2018-05-14T08:11:18.508Z,30.70
2018-05-14T08:13:47.453Z,30.57
2018-05-14T08:16:14.969Z,29.33
2018-05-14T08:18:43.241Z,31.33
2018-05-14T08:21:10.724Z,32.57
2018-05-14T08:23:38.231Z,31.50
2018-05-14T08:26:05.745Z,31.47
2018-05-14T08:28:33.238Z,31.80
2018-05-14T08:31:00.707Z,32.10
2018-05-14T08:33:28.155Z,29.80
2018-05-14T08:35:55.625Z,32.77
2018-05-14T08:38:23.166Z,33.17
2018-05-14T08:40:50.703Z,30.90
2018-05-14T08:43:18.201Z,31.87
2018-05-14T08:45:45.696Z,33.07
2018-05-14T08:48:13.156Z,31.77
2018-05-14T08:50:40.617Z,34.20
2018-05-14T08:53:08.117Z,33.93
2018-05-14T08:55:35.572Z,32.57
2018-05-14T08:58:03.976Z,32.20
2018-05-14T09:00:32.252Z,35.07
2018-05-14T09:03:00.561Z,32.90
2018-05-14T09:05:28.016Z,34.60
2018-05-14T09:07:55.471Z,34.40
2018-05-14T09:10:23.120Z,31.70
2018-05-14T09:12:50.580Z,33.90
2018-05-14T09:15:18.032Z,33.40
2018-05-14T09:17:45.497Z,32.50
2018-05-14T09:20:13.097Z,33.33
2018-05-14T09:22:40.556Z,30.17
2018-05-14T09:25:08.027Z,32.50
2018-05-14T09:27:35.492Z,31.53
2018-05-14T09:30:04.835Z,32.10
2018-05-14T09:32:32.340Z,30.40
2018-05-14T09:34:59.860Z,30.10
2018-05-14T09:37:27.324Z,30.43
2018-05-14T09:39:54.792Z,28.53
2018-05-14T09:42:22.320Z,26.07
2018-05-14T09:44:49.779Z,28.13
2018-05-14T09:47:17.236Z,29.10
2018-05-14T09:49:44.716Z,29.63
2018-05-14T09:52:12.180Z,27.50
2018-05-14T09:54:39.636Z,26.93
2018-05-14T09:57:07.104Z,28.17
2018-05-14T09:59:35.366Z,25.77
2018-05-14T10:02:02.897Z,23.67
2018-05-14T10:04:30.397Z,25.13
2018-05-14T10:06:57.874Z,24.57
2018-05-14T10:09:26.097Z,24.53
2018-05-14T10:11:53.679Z,24.47
2018-05-14T10:14:21.140Z,22.67
2018-05-14T10:16:48.604Z,23.23
2018-05-14T10:19:16.056Z,21.80
2018-05-14T10:21:45.036Z,22.37
2018-05-14T10:24:12.488Z,21.70
2018-05-14T10:26:39.963Z,20.03
2018-05-14T10:29:07.522Z,21.83
2018-05-14T10:31:35.832Z,20.93
2018-05-14T10:34:03.313Z,19.07
2018-05-14T10:36:30.771Z,18.97
2018-05-14T10:38:58.221Z,14.47
2018-05-14T10:41:25.688Z,14.50
2018-05-14T10:43:53.156Z,14.50
2018-05-14T10:46:20.624Z,14.50
2018-05-14T10:48:48.093Z,14.13
2018-05-14T10:51:15.567Z,12.23
2018-05-14T10:53:43.077Z,10.53
2018-05-14T10:56:10.541Z,10.80
2018-05-14T10:58:38.011Z,10.13
2018-05-14T11:01:05.464Z,11.40
2018-05-14T11:03:32.933Z,10.03
2018-05-14T11:06:00.393Z,8.33
2018-05-14T11:08:27.888Z,10.73
2018-05-14T11:10:55.357Z,10.97
2018-05-14T11:13:22.810Z,10.10
2018-05-14T11:15:50.268Z,10.03
2018-05-14T11:18:17.738Z,8.40
2018-05-14T11:20:45.220Z,7.73
2018-05-14T11:23:12.688Z,8.13
2018-05-14T11:25:40.161Z,9.87
2018-05-14T11:28:07.645Z,8.30
2018-05-14T11:30:35.865Z,8.77
2018-05-14T11:33:03.329Z,9.90
2018-05-14T11:35:30.919Z,8.47
2018-05-14T11:37:58.256Z,9.57
2018-05-14T11:40:25.704Z,8.30
2018-05-14T11:42:53.167Z,8.20
2018-05-14T11:45:20.620Z,8.83
2018-05-14T11:47:48.077Z,10.40
2018-05-14T11:50:15.533Z,9.90
2018-05-14T11:52:43.005Z,12.57
2018-05-14T11:55:11.229Z,11.20
2018-05-14T11:57:38.690Z,12.00
2018-05-14T12:00:06.165Z,15.33
2018-05-14T12:02:33.632Z,14.30
2018-05-14T12:05:01.097Z,15.07
2018-05-14T12:07:28.563Z,15.70
2018-05-14T12:09:56.025Z,15.77
2018-05-14T12:12:24.264Z,17.33
2018-05-14T12:14:51.720Z,15.00
2018-05-14T12:17:19.181Z,18.20
2018-05-14T12:19:46.652Z,18.43
2018-05-14T12:22:14.109Z,17.07
2018-05-14T12:24:41.578Z,16.90
2018-05-14T12:27:09.036Z,17.50
2018-05-14T12:29:36.496Z,16.80
2018-05-14T12:32:04.807Z,19.80
2018-05-14T12:34:32.212Z,19.57
2018-05-14T12:36:59.681Z,19.00
2018-05-14T12:39:27.928Z,19.53
2018-05-14T12:41:55.384Z,20.77
2018-05-14T12:44:22.844Z,18.80
2018-05-14T12:46:50.305Z,18.20
2018-05-14T12:49:17.782Z,17.70
2018-05-14T12:51:45.249Z,18.37
2018-05-14T12:54:13.477Z,21.03
2018-05-14T12:56:40.929Z,19.47
2018-05-14T12:59:08.397Z,19.10
2018-05-14T13:01:35.868Z,18.97
2018-05-14T13:04:03.348Z,20.30
2018-05-14T13:06:30.792Z,20.97
2018-05-14T13:08:58.260Z,21.93
2018-05-14T13:11:26.506Z,18.77
2018-05-14T13:13:53.969Z,22.00
2018-05-14T13:16:21.441Z,21.93
2018-05-14T13:18:48.896Z,20.50
2018-05-14T13:21:16.369Z,19.63
2018-05-14T13:23:44.605Z,19.73
2018-05-14T13:26:12.120Z,19.43
2018-05-14T13:28:39.553Z,18.37
2018-05-14T13:31:07.820Z,18.23
2018-05-14T13:33:35.284Z,19.23
2018-05-14T13:36:03.537Z,19.03
2018-05-14T13:38:31.020Z,18.33
2018-05-14T13:40:59.252Z,17.30
2018-05-14T13:43:28.060Z,19.93
2018-05-14T13:45:55.591Z,17.63
2018-05-14T13:48:23.072Z,18.60
2018-05-14T13:50:50.575Z,17.07
2018-05-14T13:53:18.031Z,16.83
2018-05-14T13:55:45.493Z,17.73
2018-05-14T13:58:12.944Z,18.20
2018-05-14T14:00:40.455Z,15.93
2018-05-14T14:03:07.916Z,16.53
2018-05-14T14:05:35.377Z,16.20
2018-05-14T14:08:02.849Z,16.53
2018-05-14T14:10:31.108Z,16.83
2018-05-14T14:12:58.575Z,12.83
2018-05-14T14:15:26.026Z,15.23
2018-05-14T14:17:53.486Z,15.23
2018-05-14T14:20:20.949Z,12.30
2018-05-14T14:22:48.497Z,12.87
2018-05-14T14:25:16.048Z,13.43
2018-05-14T14:27:43.612Z,10.53
2018-05-14T14:30:11.088Z,12.20
2018-05-14T14:32:39.334Z,12.00
2018-05-14T14:35:06.818Z,12.20
2018-05-14T14:37:35.041Z,11.07
2018-05-14T14:40:02.512Z,10.77
2018-05-14T14:42:29.980Z,11.43
2018-05-14T14:44:57.445Z,10.30
2018-05-14T14:47:24.909Z,9.13
2018-05-14T14:49:52.368Z,10.03
2018-05-14T14:52:19.841Z,9.37
2018-05-14T14:54:48.057Z,9.27
2018-05-14T14:57:15.509Z,9.00
2018-05-14T14:59:42.996Z,8.80
2018-05-14T15:02:10.464Z,8.17
2018-05-14T15:04:37.916Z,7.90
2018-05-14T15:07:05.414Z,6.70
2018-05-14T15:09:33.604Z,8.50
2018-05-14T15:12:01.071Z,7.60
2018-05-14T15:14:28.544Z,6.80
2018-05-14T15:16:56.007Z,7.50
2018-05-14T15:19:23.470Z,6.23
2018-05-14T15:21:50.933Z,6.67
2018-05-14T15:24:18.405Z,5.60
2018-05-14T15:26:46.668Z,6.20
2018-05-14T15:29:14.150Z,6.07
2018-05-14T15:31:42.374Z,5.50
2018-05-14T15:34:09.883Z,5.70
2018-05-14T15:36:38.092Z,6.50
2018-05-14T15:39:05.567Z,6.30
2018-05-14T15:41:33.032Z,4.70
2018-05-14T15:44:00.509Z,6.23
2018-05-14T15:46:28.736Z,5.17
2018-05-14T15:48:56.183Z,5.30
2018-05-14T15:51:23.663Z,5.87
2018-05-14T15:53:51.117Z,5.50
2018-05-14T15:56:18.643Z,4.90
2018-05-14T15:58:46.066Z,5.03
2018-05-14T16:01:13.507Z,5.10
2018-05-14T16:03:40.961Z,5.50
2018-05-14T16:06:08.454Z,4.83
2018-05-14T16:08:36.696Z,4.57
2018-05-14T16:11:04.149Z,4.80
2018-05-14T16:13:31.624Z,4.87
2018-05-14T16:15:59.072Z,5.37
2018-05-14T16:18:26.548Z,4.20
2018-05-14T16:20:54.764Z,4.80
2018-05-14T16:23:22.239Z,4.50
2018-05-14T16:25:49.710Z,4.70
2018-05-14T16:28:17.164Z,4.43
2018-05-14T16:30:44.641Z,5.60
2018-05-14T16:33:12.093Z,4.50
2018-05-14T16:35:39.545Z,4.33
2018-05-14T16:38:07.010Z,4.73
2018-05-14T16:40:35.248Z,5.40
2018-05-14T16:43:02.699Z,4.50
2018-05-14T16:45:30.213Z,5.53
2018-05-14T16:47:58.445Z,5.40
2018-05-14T16:50:25.956Z,5.30
2018-05-14T16:52:53.369Z,4.97
2018-05-14T16:55:20.827Z,4.70
2018-05-14T16:57:49.904Z,3.80
2018-05-14T17:00:17.296Z,4.93
2018-05-14T17:02:45.524Z,4.47
2018-05-14T17:05:13.012Z,4.70
2018-05-14T17:07:40.479Z,3.60
2018-05-14T17:10:07.933Z,5.00
2018-05-14T17:12:35.397Z,4.70
2018-05-14T17:15:03.628Z,4.50
2018-05-14T17:17:31.097Z,4.60
2018-05-14T17:19:58.573Z,4.10
2018-05-14T17:22:26.123Z,5.00
2018-05-14T17:24:53.629Z,5.03
2018-05-14T17:27:21.137Z,8.00
2018-05-14T17:29:48.584Z,9.93
2018-05-14T17:32:16.046Z,9.50
2018-05-14T17:34:43.516Z,10.60
2018-05-14T17:37:10.981Z,9.57
2018-05-14T17:39:38.532Z,10.10
2018-05-14T17:42:05.996Z,9.97
2018-05-14T17:44:33.453Z,10.80
2018-05-14T17:47:00.976Z,11.47
2018-05-14T17:49:28.404Z,12.23
2018-05-14T17:51:55.872Z,11.20
2018-05-14T17:54:23.344Z,10.87
2018-05-14T17:56:50.803Z,11.90
2018-05-14T17:59:18.268Z,11.03
2018-05-14T18:01:45.721Z,11.77
2018-05-14T18:04:13.202Z,11.10
2018-05-14T18:06:40.657Z,10.77
2018-05-14T18:09:08.117Z,11.40
2018-05-14T18:11:35.594Z,9.90
2018-05-14T18:14:03.816Z,10.93
2018-05-14T18:16:31.280Z,11.53
2018-05-14T18:18:58.784Z,10.87
2018-05-14T18:21:32.628Z,10.27
2018-05-14T18:24:00.129Z,10.57
2018-05-14T18:26:34.097Z,10.10
2018-05-14T18:29:05.556Z,11.23
2018-05-14T18:31:33.026Z,9.97
2018-05-14T18:34:06.292Z,10.47
2018-05-14T18:36:33.751Z,11.40
2018-05-14T18:39:01.267Z,11.63
2018-05-14T18:41:28.720Z,12.77
2018-05-14T18:43:56.960Z,12.93
2018-05-14T18:46:24.538Z,12.70
2018-05-14T18:48:52.785Z,14.30
2018-05-14T18:51:20.261Z,14.33
2018-05-14T18:53:47.736Z,16.07
2018-05-14T18:56:16.729Z,14.53
2018-05-14T18:58:44.951Z,14.93
2018-05-14T19:01:12.454Z,14.03
2018-05-14T19:03:39.968Z,14.23
2018-05-14T19:06:07.511Z,14.97
2018-05-14T19:08:35.033Z,14.00
2018-05-14T19:11:08.223Z,15.63
2018-05-14T19:13:36.496Z,15.60
2018-05-14T19:16:23.336Z,14.40
2018-05-14T19:18:51.560Z,15.97
2018-05-14T19:21:19.033Z,15.47
2018-05-14T19:23:52.354Z,16.40
2018-05-14T19:26:19.784Z,16.03
2018-05-14T19:28:52.895Z,17.47
2018-05-14T19:31:21.120Z,16.67
2018-05-14T19:33:54.367Z,16.40
2018-05-14T19:36:22.594Z,17.00
2018-05-14T19:38:50.062Z,18.63
2018-05-14T19:41:17.539Z,18.17
2018-05-14T19:43:46.509Z,18.37
2018-05-14T19:46:13.985Z,17.40
2018-05-14T19:48:42.258Z,17.17
2018-05-14T19:51:11.225Z,17.47
2018-05-14T19:53:38.684Z,16.80
2018-05-14T19:56:06.267Z,18.27
2018-05-14T19:58:34.511Z,16.70
2018-05-14T20:01:01.999Z,18.77
2018-05-14T20:03:29.532Z,17.63
2018-05-14T20:05:57.729Z,17.90
2018-05-14T20:08:25.189Z,15.83
2018-05-14T20:10:52.669Z,14.90
2018-05-14T20:13:20.900Z,16.20
2018-05-14T20:15:48.396Z,15.83
2018-05-14T20:18:16.648Z,15.47
2018-05-14T20:20:44.144Z,14.00
2018-05-14T20:23:13.348Z,13.90
2018-05-14T20:25:40.816Z,13.60
2018-05-14T20:28:09.079Z,13.30
2018-05-14T20:30:36.556Z,13.00
2018-05-14T20:33:04.036Z,11.40
2018-05-14T20:35:31.550Z,11.63
2018-05-14T20:37:59.009Z,11.73
2018-05-14T20:40:26.476Z,11.20
2018-05-14T20:42:53.943Z,10.33
2018-05-14T20:45:21.489Z,10.77
2018-05-14T20:47:48.880Z,10.63
2018-05-14T20:50:16.454Z,10.10
2018-05-14T20:52:43.908Z,10.97
2018-05-14T20:55:11.381Z,10.50
2018-05-14T20:57:39.613Z,11.40
2018-05-14T21:00:07.076Z,10.57
2018-05-14T21:02:34.532Z,11.30
2018-05-14T21:05:01.996Z,11.13
2018-05-14T21:07:29.466Z,12.33
2018-05-14T21:09:56.948Z,12.60
2018-05-14T21:12:25.171Z,12.20
2018-05-14T21:14:52.754Z,12.03
2018-05-14T21:17:20.133Z,14.83
2018-05-14T21:19:48.361Z,13.10
2018-05-14T21:22:15.812Z,12.53
2018-05-14T21:24:43.285Z,13.43
2018-05-14T21:27:10.751Z,14.50
2018-05-14T21:29:38.209Z,15.43
2018-05-14T21:32:05.672Z,15.20
2018-05-14T21:34:33.232Z,14.70
2018-05-14T21:37:00.692Z,16.77
2018-05-14T21:39:29.122Z,15.43
2018-05-14T21:41:56.584Z,16.00
2018-05-14T21:44:24.041Z,16.63
2018-05-14T21:46:51.520Z,14.77
2018-05-14T21:49:18.987Z,16.80
2018-05-14T21:51:46.479Z,16.40
2018-05-14T21:54:14.700Z,15.47
2018-05-14T21:56:42.195Z,15.07
2018-05-14T21:59:10.449Z,15.47
2018-05-14T22:01:37.905Z,15.07
2018-05-14T22:04:05.378Z,16.73
2018-05-14T22:06:32.833Z,16.80
2018-05-14T22:09:00.297Z,17.43
2018-05-14T22:11:27.809Z,16.63
2018-05-14T22:13:55.256Z,15.33
2018-05-14T22:16:22.751Z,17.53
2018-05-14T22:18:50.217Z,17.77
2018-05-14T22:21:17.670Z,16.73
2018-05-14T22:23:45.135Z,17.50
2018-05-14T22:26:12.640Z,19.17
2018-05-14T22:28:40.086Z,18.97
2018-05-14T22:31:07.581Z,17.67
2018-05-14T22:33:35.052Z,19.47
2018-05-14T22:36:02.589Z,18.30
2018-05-14T22:38:30.066Z,19.00
2018-05-14T22:40:57.530Z,17.47
2018-05-14T22:43:24.992Z,19.20
2018-05-14T22:45:52.456Z,18.40
2018-05-14T22:48:20.683Z,17.83
2018-05-14T22:50:48.949Z,19.50
2018-05-14T22:53:16.416Z,19.30
2018-05-14T22:55:43.896Z,17.00
2018-05-14T22:58:11.348Z,19.37
2018-05-14T23:00:38.821Z,19.90
2018-05-14T23:03:06.270Z,18.43
2018-05-14T23:05:33.833Z,20.33
2018-05-14T23:08:01.301Z,18.90
2018-05-14T23:10:28.770Z,18.97
2018-05-14T23:12:56.996Z,18.43
2018-05-14T23:15:24.473Z,19.50
2018-05-14T23:17:51.944Z,18.43
2018-05-14T23:20:19.397Z,20.30
2018-05-14T23:22:46.889Z,22.67
2018-05-14T23:25:14.351Z,21.53
2018-05-14T23:27:41.820Z,20.10
2018-05-14T23:30:10.094Z,21.77
2018-05-14T23:32:37.541Z,21.70
2018-05-14T23:35:05.111Z,23.30
2018-05-14T23:37:32.569Z,21.70
2018-05-14T23:40:00.024Z,23.40
2018-05-14T23:42:27.510Z,22.93
2018-05-14T23:44:54.973Z,21.53
2018-05-14T23:47:22.559Z,22.70
2018-05-14T23:49:50.788Z,22.93
2018-05-14T23:52:18.267Z,24.50
2018-05-14T23:54:45.737Z,23.63
2018-05-14T23:57:13.194Z,22.83
2018-05-14T23:59:40.663Z,22.00
